Dexter, Michigan
Current Conditions -  °F | °C
As of 3:53 PM on Saturday 20 Dec 2014 (Local Time) from KARB Reporting Station
Overcast Overcast  
Wind Chill: -1°   Ceiling: 2600
Heat Index: -1°   Visibility: 10mi
Dew Point: -6°   Wind: 0mph
Humidity: 69%   Direction: NA
Pressure: 30.25"   Gusts: NA
Location:  42.34°N, 83.89°W
Report Text: KARB 202053Z 00000KT 10SM OVC026 M01/M06 A3025 RMK AO2 SLP255 T10111061 55003
Loading
Personal Weather Stations






























Interactive Weather Map New forecast layout! Learn more

10-Day Weather Forecast

Advertisements
Track Severe Weather on mobile